KALK

Pioneer Airfield

Pioneer Airfield, Arizona, USA
METAR KALK 110356Z AUTO 08006KT 10SM CLR 09/01 A3020 RMK AO2 SLP179 T00890011 $
Observed Flight Rules
Dec-11 @ 03:56 UTC (37 minutes ago) Visual Flight Rules
Wind Visibility Clouds
80° at 6 knots 10 miles
  • Clear skies
Temperatures Readings
Current 9°C / 48°F
Dewpoint 1°C / 34°F
Humidity 58%
Altimeter 30.2" Hg
Pressure 1017.9 hPa
Elevation 1453
METAR KALK 110356Z AUTO 08006KT 10SM CLR 09/01 A3020 RMK AO2 SLP179 T00890011 $
Observed Flight Rules
Dec-11 @ 03:56 UTC
(37 minutes ago)
VFR
Wind Visibility
80° at 6 knots 10 miles
Clouds
  • Clear skies
Temperature Dewpoint
9°C / 48°F 1°C / 34°F
Humidity Altimeter Pressure
58% 30.2" Hg 1017.9 hPa